sensor_id;sensor_type;location;lat;lon;timestamp;P1;durP1;ratioP1;P2;durP2;ratioP2
70967;SDS011;58629;48.808;8.820;2022-12-20T00:00:12;10.07;;;5.50;;
70967;SDS011;58629;48.808;8.820;2022-12-20T00:02:38;11.68;;;5.82;;
70967;SDS011;58629;48.808;8.820;2022-12-20T00:05:03;11.93;;;6.87;;
70967;SDS011;58629;48.808;8.820;2022-12-20T00:07:29;11.97;;;6.30;;
70967;SDS011;58629;48.808;8.820;2022-12-20T00:09:54;11.00;;;6.25;;
70967;SDS011;58629;48.808;8.820;2022-12-20T00:12:19;11.65;;;6.50;;
70967;SDS011;58629;48.808;8.820;2022-12-20T00:14:45;13.02;;;6.68;;
70967;SDS011;58629;48.808;8.820;2022-12-20T00:17:10;13.07;;;6.50;;
70967;SDS011;58629;48.808;8.820;2022-12-20T00:19:35;10.83;;;6.00;;
70967;SDS011;58629;48.808;8.820;2022-12-20T00:22:01;12.13;;;6.47;;
70967;SDS011;58629;48.808;8.820;2022-12-20T00:24:26;10.50;;;5.60;;
70967;SDS011;58629;48.808;8.820;2022-12-20T00:26:51;9.63;;;5.07;;
70967;SDS011;58629;48.808;8.820;2022-12-20T00:29:16;9.40;;;5.20;;
70967;SDS011;58629;48.808;8.820;2022-12-20T00:31:42;12.73;;;6.20;;
70967;SDS011;58629;48.808;8.820;2022-12-20T00:34:07;11.53;;;6.27;;
70967;SDS011;58629;48.808;8.820;2022-12-20T00:36:33;13.70;;;6.80;;
70967;SDS011;58629;48.808;8.820;2022-12-20T00:38:59;11.43;;;6.27;;
70967;SDS011;58629;48.808;8.820;2022-12-20T00:41:26;13.73;;;7.00;;
70967;SDS011;58629;48.808;8.820;2022-12-20T00:43:53;11.95;;;6.60;;
70967;SDS011;58629;48.808;8.820;2022-12-20T00:46:19;11.70;;;6.30;;
70967;SDS011;58629;48.808;8.820;2022-12-20T00:48:47;10.25;;;5.72;;
70967;SDS011;58629;48.808;8.820;2022-12-20T00:51:14;11.98;;;6.60;;
70967;SDS011;58629;48.808;8.820;2022-12-20T00:53:41;10.95;;;5.80;;
70967;SDS011;58629;48.808;8.820;2022-12-20T00:56:07;9.77;;;5.30;;
70967;SDS011;58629;48.808;8.820;2022-12-20T00:58:34;10.73;;;5.18;;
70967;SDS011;58629;48.808;8.820;2022-12-20T01:01:01;13.57;;;6.75;;
70967;SDS011;58629;48.808;8.820;2022-12-20T01:03:28;10.68;;;5.85;;
70967;SDS011;58629;48.808;8.820;2022-12-20T01:05:54;10.50;;;5.97;;
70967;SDS011;58629;48.808;8.820;2022-12-20T01:08:22;13.73;;;7.18;;
70967;SDS011;58629;48.808;8.820;2022-12-20T01:13:38;13.70;;;7.30;;
70967;SDS011;58629;48.808;8.820;2022-12-20T01:16:06;12.57;;;7.25;;
70967;SDS011;58629;48.808;8.820;2022-12-20T01:18:32;13.32;;;7.00;;
70967;SDS011;58629;48.808;8.820;2022-12-20T01:21:02;14.05;;;7.18;;
70967;SDS011;58629;48.808;8.820;2022-12-20T01:23:28;12.50;;;6.63;;
70967;SDS011;58629;48.808;8.820;2022-12-20T01:25:55;14.27;;;6.63;;
70967;SDS011;58629;48.808;8.820;2022-12-20T01:28:22;12.90;;;6.80;;
70967;SDS011;58629;48.808;8.820;2022-12-20T01:30:47;11.67;;;6.17;;
70967;SDS011;58629;48.808;8.820;2022-12-20T01:33:12;10.33;;;5.47;;
70967;SDS011;58629;48.808;8.820;2022-12-20T01:35:37;11.30;;;5.83;;
70967;SDS011;58629;48.808;8.820;2022-12-20T01:38:02;12.10;;;6.13;;
70967;SDS011;58629;48.808;8.820;2022-12-20T01:40:28;11.67;;;5.90;;
70967;SDS011;58629;48.808;8.820;2022-12-20T01:42:53;11.57;;;5.97;;
70967;SDS011;58629;48.808;8.820;2022-12-20T01:45:26;10.63;;;5.73;;
70967;SDS011;58629;48.808;8.820;2022-12-20T01:47:53;11.48;;;6.30;;
70967;SDS011;58629;48.808;8.820;2022-12-20T01:50:19;13.35;;;6.85;;
70967;SDS011;58629;48.808;8.820;2022-12-20T01:52:45;11.85;;;6.85;;
70967;SDS011;58629;48.808;8.820;2022-12-20T01:55:13;13.00;;;6.70;;
70967;SDS011;58629;48.808;8.820;2022-12-20T02:00:21;12.60;;;6.82;;
70967;SDS011;58629;48.808;8.820;2022-12-20T02:02:47;10.93;;;6.10;;
70967;SDS011;58629;48.808;8.820;2022-12-20T02:05:14;12.27;;;6.53;;
70967;SDS011;58629;48.808;8.820;2022-12-20T02:07:41;12.43;;;6.40;;
70967;SDS011;58629;48.808;8.820;2022-12-20T02:10:09;11.82;;;6.32;;
70967;SDS011;58629;48.808;8.820;2022-12-20T02:12:45;13.18;;;6.30;;
70967;SDS011;58629;48.808;8.820;2022-12-20T02:17:53;11.38;;;5.60;;
70967;SDS011;58629;48.808;8.820;2022-12-20T02:29:10;10.67;;;5.47;;
70967;SDS011;58629;48.808;8.820;2022-12-20T02:31:48;11.30;;;6.22;;
70967;SDS011;58629;48.808;8.820;2022-12-20T02:34:20;11.52;;;6.28;;
70967;SDS011;58629;48.808;8.820;2022-12-20T02:36:48;10.32;;;5.75;;
70967;SDS011;58629;48.808;8.820;2022-12-20T02:39:15;9.53;;;5.03;;
70967;SDS011;58629;48.808;8.820;2022-12-20T02:41:49;8.70;;;4.90;;
70967;SDS011;58629;48.808;8.820;2022-12-20T02:44:18;11.60;;;5.90;;
70967;SDS011;58629;48.808;8.820;2022-12-20T02:47:08;11.10;;;5.63;;
70967;SDS011;58629;48.808;8.820;2022-12-20T02:49:44;10.38;;;5.40;;
70967;SDS011;58629;48.808;8.820;2022-12-20T02:52:11;9.25;;;5.13;;
70967;SDS011;58629;48.808;8.820;2022-12-20T02:54:38;11.50;;;5.85;;
70967;SDS011;58629;48.808;8.820;2022-12-20T02:57:17;10.97;;;5.83;;
70967;SDS011;58629;48.808;8.820;2022-12-20T02:59:53;10.73;;;5.97;;
70967;SDS011;58629;48.808;8.820;2022-12-20T03:02:23;11.57;;;6.10;;
70967;SDS011;58629;48.808;8.820;2022-12-20T03:04:50;10.43;;;5.43;;
70967;SDS011;58629;48.808;8.820;2022-12-20T03:07:17;9.57;;;5.50;;
70967;SDS011;58629;48.808;8.820;2022-12-20T03:09:46;10.20;;;5.10;;
70967;SDS011;58629;48.808;8.820;2022-12-20T03:12:12;9.73;;;5.23;;
70967;SDS011;58629;48.808;8.820;2022-12-20T03:14:38;11.15;;;5.53;;
70967;SDS011;58629;48.808;8.820;2022-12-20T03:17:04;11.27;;;6.07;;
70967;SDS011;58629;48.808;8.820;2022-12-20T03:19:30;10.30;;;5.53;;
70967;SDS011;58629;48.808;8.820;2022-12-20T03:21:56;10.70;;;5.68;;
70967;SDS011;58629;48.808;8.820;2022-12-20T03:24:21;10.40;;;5.87;;
70967;SDS011;58629;48.808;8.820;2022-12-20T03:26:47;11.20;;;6.23;;
70967;SDS011;58629;48.808;8.820;2022-12-20T03:29:12;10.43;;;6.10;;
70967;SDS011;58629;48.808;8.820;2022-12-20T03:31:37;12.27;;;6.43;;
70967;SDS011;58629;48.808;8.820;2022-12-20T03:34:03;10.85;;;5.72;;
70967;SDS011;58629;48.808;8.820;2022-12-20T03:36:29;10.02;;;5.40;;
70967;SDS011;58629;48.808;8.820;2022-12-20T03:38:55;10.93;;;5.73;;
70967;SDS011;58629;48.808;8.820;2022-12-20T03:41:20;9.67;;;5.57;;
70967;SDS011;58629;48.808;8.820;2022-12-20T03:43:46;8.95;;;4.90;;
70967;SDS011;58629;48.808;8.820;2022-12-20T03:46:15;9.77;;;4.88;;
70967;SDS011;58629;48.808;8.820;2022-12-20T03:48:40;10.30;;;6.00;;
70967;SDS011;58629;48.808;8.820;2022-12-20T03:51:06;11.32;;;5.63;;
70967;SDS011;58629;48.808;8.820;2022-12-20T03:53:31;9.68;;;5.40;;
70967;SDS011;58629;48.808;8.820;2022-12-20T03:55:57;8.13;;;5.13;;
70967;SDS011;58629;48.808;8.820;2022-12-20T03:58:23;9.13;;;4.80;;
70967;SDS011;58629;48.808;8.820;2022-12-20T04:00:48;9.03;;;5.00;;
70967;SDS011;58629;48.808;8.820;2022-12-20T04:03:14;8.67;;;5.03;;
70967;SDS011;58629;48.808;8.820;2022-12-20T04:05:39;8.13;;;4.70;;
70967;SDS011;58629;48.808;8.820;2022-12-20T04:08:04;7.95;;;4.60;;
70967;SDS011;58629;48.808;8.820;2022-12-20T04:10:30;9.88;;;4.93;;
70967;SDS011;58629;48.808;8.820;2022-12-20T04:12:55;10.10;;;5.50;;
70967;SDS011;58629;48.808;8.820;2022-12-20T04:15:20;9.47;;;5.43;;
70967;SDS011;58629;48.808;8.820;2022-12-20T04:17:46;10.30;;;5.40;;
70967;SDS011;58629;48.808;8.820;2022-12-20T04:20:14;8.07;;;4.90;;
70967;SDS011;58629;48.808;8.820;2022-12-20T04:22:44;14.63;;;9.90;;
70967;SDS011;58629;48.808;8.820;2022-12-20T04:25:14;10.43;;;5.83;;
70967;SDS011;58629;48.808;8.820;2022-12-20T04:27:40;9.05;;;5.22;;
70967;SDS011;58629;48.808;8.820;2022-12-20T04:30:06;9.03;;;4.97;;
70967;SDS011;58629;48.808;8.820;2022-12-20T04:32:33;8.85;;;5.05;;
70967;SDS011;58629;48.808;8.820;2022-12-20T04:34:58;8.73;;;4.43;;
70967;SDS011;58629;48.808;8.820;2022-12-20T04:37:23;7.53;;;4.43;;
70967;SDS011;58629;48.808;8.820;2022-12-20T04:39:49;7.60;;;4.30;;
70967;SDS011;58629;48.808;8.820;2022-12-20T04:42:14;7.87;;;4.90;;
70967;SDS011;58629;48.808;8.820;2022-12-20T04:44:39;8.23;;;4.40;;
70967;SDS011;58629;48.808;8.820;2022-12-20T04:47:04;8.10;;;4.60;;
70967;SDS011;58629;48.808;8.820;2022-12-20T04:49:30;8.97;;;4.80;;
70967;SDS011;58629;48.808;8.820;2022-12-20T04:51:55;8.03;;;4.17;;
70967;SDS011;58629;48.808;8.820;2022-12-20T04:54:40;9.30;;;4.38;;
70967;SDS011;58629;48.808;8.820;2022-12-20T04:57:05;7.43;;;4.27;;
70967;SDS011;58629;48.808;8.820;2022-12-20T04:59:33;7.55;;;4.25;;
70967;SDS011;58629;48.808;8.820;2022-12-20T05:01:59;7.83;;;4.17;;
70967;SDS011;58629;48.808;8.820;2022-12-20T05:04:24;8.23;;;4.20;;
70967;SDS011;58629;48.808;8.820;2022-12-20T05:06:49;8.17;;;4.00;;
70967;SDS011;58629;48.808;8.820;2022-12-20T05:09:15;7.03;;;3.50;;
70967;SDS011;58629;48.808;8.820;2022-12-20T05:11:40;6.03;;;3.50;;
70967;SDS011;58629;48.808;8.820;2022-12-20T05:14:05;7.07;;;4.37;;
70967;SDS011;58629;48.808;8.820;2022-12-20T05:16:30;9.00;;;4.60;;
70967;SDS011;58629;48.808;8.820;2022-12-20T05:18:56;8.53;;;4.20;;
70967;SDS011;58629;48.808;8.820;2022-12-20T05:21:21;7.47;;;4.60;;
70967;SDS011;58629;48.808;8.820;2022-12-20T05:24:05;7.57;;;4.43;;
70967;SDS011;58629;48.808;8.820;2022-12-20T05:26:49;8.05;;;4.60;;
70967;SDS011;58629;48.808;8.820;2022-12-20T05:29:14;8.60;;;3.93;;
70967;SDS011;58629;48.808;8.820;2022-12-20T05:31:40;7.32;;;4.05;;
70967;SDS011;58629;48.808;8.820;2022-12-20T05:34:06;7.30;;;3.73;;
70967;SDS011;58629;48.808;8.820;2022-12-20T05:36:31;6.90;;;3.53;;
70967;SDS011;58629;48.808;8.820;2022-12-20T05:38:56;4.87;;;3.07;;
70967;SDS011;58629;48.808;8.820;2022-12-20T05:41:21;6.07;;;3.40;;
70967;SDS011;58629;48.808;8.820;2022-12-20T05:43:47;5.90;;;3.43;;
70967;SDS011;58629;48.808;8.820;2022-12-20T05:46:12;6.13;;;3.43;;
70967;SDS011;58629;48.808;8.820;2022-12-20T05:48:37;8.60;;;4.17;;
70967;SDS011;58629;48.808;8.820;2022-12-20T05:51:02;7.03;;;4.03;;
70967;SDS011;58629;48.808;8.820;2022-12-20T05:53:28;5.87;;;3.50;;
70967;SDS011;58629;48.808;8.820;2022-12-20T05:55:54;6.93;;;3.65;;
70967;SDS011;58629;48.808;8.820;2022-12-20T05:58:19;5.83;;;3.40;;
70967;SDS011;58629;48.808;8.820;2022-12-20T06:00:45;6.15;;;3.50;;
70967;SDS011;58629;48.808;8.820;2022-12-20T06:03:11;6.73;;;4.13;;
70967;SDS011;58629;48.808;8.820;2022-12-20T06:05:39;6.07;;;4.00;;
70967;SDS011;58629;48.808;8.820;2022-12-20T06:08:05;5.22;;;3.20;;
70967;SDS011;58629;48.808;8.820;2022-12-20T06:10:31;5.65;;;3.08;;
70967;SDS011;58629;48.808;8.820;2022-12-20T06:13:01;5.75;;;3.28;;
70967;SDS011;58629;48.808;8.820;2022-12-20T06:15:27;5.90;;;3.70;;
70967;SDS011;58629;48.808;8.820;2022-12-20T06:17:53;6.75;;;3.78;;
70967;SDS011;58629;48.808;8.820;2022-12-20T06:20:18;6.70;;;3.67;;
70967;SDS011;58629;48.808;8.820;2022-12-20T06:22:43;5.93;;;3.43;;
70967;SDS011;58629;48.808;8.820;2022-12-20T06:25:09;6.57;;;4.03;;
70967;SDS011;58629;48.808;8.820;2022-12-20T06:27:36;6.18;;;3.65;;
70967;SDS011;58629;48.808;8.820;2022-12-20T06:30:03;6.50;;;3.20;;
70967;SDS011;58629;48.808;8.820;2022-12-20T06:32:29;6.53;;;3.50;;
70967;SDS011;58629;48.808;8.820;2022-12-20T06:34:54;6.70;;;4.03;;
70967;SDS011;58629;48.808;8.820;2022-12-20T06:37:19;6.07;;;3.60;;
70967;SDS011;58629;48.808;8.820;2022-12-20T06:39:45;5.57;;;3.37;;
70967;SDS011;58629;48.808;8.820;2022-12-20T06:42:10;6.23;;;3.40;;
70967;SDS011;58629;48.808;8.820;2022-12-20T06:44:35;6.00;;;3.37;;
70967;SDS011;58629;48.808;8.820;2022-12-20T06:47:01;4.97;;;3.30;;
70967;SDS011;58629;48.808;8.820;2022-12-20T06:49:26;5.17;;;3.13;;
70967;SDS011;58629;48.808;8.820;2022-12-20T06:51:51;5.97;;;3.00;;
70967;SDS011;58629;48.808;8.820;2022-12-20T06:54:16;5.35;;;3.30;;
70967;SDS011;58629;48.808;8.820;2022-12-20T06:56:42;5.15;;;2.97;;
70967;SDS011;58629;48.808;8.820;2022-12-20T06:59:07;4.22;;;2.60;;
70967;SDS011;58629;48.808;8.820;2022-12-20T07:01:32;4.40;;;2.53;;
70967;SDS011;58629;48.808;8.820;2022-12-20T07:03:57;4.72;;;3.10;;
70967;SDS011;58629;48.808;8.820;2022-12-20T07:06:23;4.75;;;3.08;;
70967;SDS011;58629;48.808;8.820;2022-12-20T07:08:48;5.20;;;3.10;;
70967;SDS011;58629;48.808;8.820;2022-12-20T07:11:13;5.67;;;3.33;;
70967;SDS011;58629;48.808;8.820;2022-12-20T07:13:39;5.40;;;3.37;;
70967;SDS011;58629;48.808;8.820;2022-12-20T07:16:04;6.10;;;3.40;;
70967;SDS011;58629;48.808;8.820;2022-12-20T07:18:30;7.53;;;3.77;;
70967;SDS011;58629;48.808;8.820;2022-12-20T07:20:59;6.90;;;3.65;;
70967;SDS011;58629;48.808;8.820;2022-12-20T07:23:26;5.20;;;3.00;;
70967;SDS011;58629;48.808;8.820;2022-12-20T07:25:52;5.27;;;2.90;;
70967;SDS011;58629;48.808;8.820;2022-12-20T07:28:22;5.88;;;3.60;;
70967;SDS011;58629;48.808;8.820;2022-12-20T07:30:48;5.22;;;3.42;;
70967;SDS011;58629;48.808;8.820;2022-12-20T07:33:13;5.63;;;3.67;;
70967;SDS011;58629;48.808;8.820;2022-12-20T07:35:38;5.87;;;3.30;;
70967;SDS011;58629;48.808;8.820;2022-12-20T07:38:04;6.37;;;3.80;;
70967;SDS011;58629;48.808;8.820;2022-12-20T07:40:29;6.30;;;3.37;;
70967;SDS011;58629;48.808;8.820;2022-12-20T07:42:55;5.90;;;3.80;;
70967;SDS011;58629;48.808;8.820;2022-12-20T07:45:20;6.13;;;3.20;;
70967;SDS011;58629;48.808;8.820;2022-12-20T07:47:45;6.60;;;3.75;;
70967;SDS011;58629;48.808;8.820;2022-12-20T07:50:11;5.63;;;3.47;;
70967;SDS011;58629;48.808;8.820;2022-12-20T07:52:36;5.03;;;3.20;;
70967;SDS011;58629;48.808;8.820;2022-12-20T07:55:04;7.03;;;3.67;;
70967;SDS011;58629;48.808;8.820;2022-12-20T07:57:35;6.68;;;3.47;;
70967;SDS011;58629;48.808;8.820;2022-12-20T08:00:07;5.13;;;3.00;;
70967;SDS011;58629;48.808;8.820;2022-12-20T08:02:55;5.35;;;3.28;;
70967;SDS011;58629;48.808;8.820;2022-12-20T08:05:25;5.30;;;3.22;;
70967;SDS011;58629;48.808;8.820;2022-12-20T08:07:51;6.43;;;3.63;;
70967;SDS011;58629;48.808;8.820;2022-12-20T08:10:18;5.13;;;3.03;;
70967;SDS011;58629;48.808;8.820;2022-12-20T08:12:44;5.15;;;2.85;;
70967;SDS011;58629;48.808;8.820;2022-12-20T08:15:11;5.03;;;2.90;;
70967;SDS011;58629;48.808;8.820;2022-12-20T08:17:37;6.43;;;3.20;;
70967;SDS011;58629;48.808;8.820;2022-12-20T08:20:02;5.73;;;3.20;;
70967;SDS011;58629;48.808;8.820;2022-12-20T08:22:29;5.53;;;3.22;;
70967;SDS011;58629;48.808;8.820;2022-12-20T08:24:55;5.20;;;3.27;;
70967;SDS011;58629;48.808;8.820;2022-12-20T08:27:20;6.50;;;3.70;;
70967;SDS011;58629;48.808;8.820;2022-12-20T08:29:46;6.50;;;3.40;;
70967;SDS011;58629;48.808;8.820;2022-12-20T08:32:11;6.32;;;3.47;;
70967;SDS011;58629;48.808;8.820;2022-12-20T08:34:38;5.13;;;3.20;;
70967;SDS011;58629;48.808;8.820;2022-12-20T08:37:04;6.10;;;3.63;;
70967;SDS011;58629;48.808;8.820;2022-12-20T08:39:29;5.93;;;3.33;;
70967;SDS011;58629;48.808;8.820;2022-12-20T08:41:54;4.63;;;3.07;;
70967;SDS011;58629;48.808;8.820;2022-12-20T08:44:19;5.53;;;3.20;;
70967;SDS011;58629;48.808;8.820;2022-12-20T08:46:45;5.57;;;3.20;;
70967;SDS011;58629;48.808;8.820;2022-12-20T08:49:10;5.90;;;3.30;;
70967;SDS011;58629;48.808;8.820;2022-12-20T08:51:35;6.10;;;3.37;;
70967;SDS011;58629;48.808;8.820;2022-12-20T08:54:01;7.82;;;3.60;;
70967;SDS011;58629;48.808;8.820;2022-12-20T08:56:26;10.20;;;4.50;;
70967;SDS011;58629;48.808;8.820;2022-12-20T08:58:52;7.53;;;3.80;;
70967;SDS011;58629;48.808;8.820;2022-12-20T09:01:17;8.87;;;4.43;;
70967;SDS011;58629;48.808;8.820;2022-12-20T09:03:44;8.27;;;4.32;;
70967;SDS011;58629;48.808;8.820;2022-12-20T09:06:11;7.55;;;4.10;;
70967;SDS011;58629;48.808;8.820;2022-12-20T09:08:38;5.97;;;3.47;;
70967;SDS011;58629;48.808;8.820;2022-12-20T09:11:11;6.90;;;3.60;;
70967;SDS011;58629;48.808;8.820;2022-12-20T09:13:39;8.55;;;3.88;;
70967;SDS011;58629;48.808;8.820;2022-12-20T09:16:05;6.60;;;3.47;;
70967;SDS011;58629;48.808;8.820;2022-12-20T09:18:31;8.13;;;3.72;;
70967;SDS011;58629;48.808;8.820;2022-12-20T09:21:00;8.50;;;4.07;;
70967;SDS011;58629;48.808;8.820;2022-12-20T09:23:27;5.88;;;3.20;;
70967;SDS011;58629;48.808;8.820;2022-12-20T09:25:54;5.87;;;3.33;;
70967;SDS011;58629;48.808;8.820;2022-12-20T09:28:20;6.40;;;3.75;;
70967;SDS011;58629;48.808;8.820;2022-12-20T09:30:45;7.65;;;3.92;;
70967;SDS011;58629;48.808;8.820;2022-12-20T09:33:11;6.70;;;3.53;;
70967;SDS011;58629;48.808;8.820;2022-12-20T09:35:43;7.90;;;4.33;;
70967;SDS011;58629;48.808;8.820;2022-12-20T09:38:09;15.32;;;7.47;;
70967;SDS011;58629;48.808;8.820;2022-12-20T09:40:34;9.03;;;4.87;;
70967;SDS011;58629;48.808;8.820;2022-12-20T09:43:02;7.70;;;4.07;;
70967;SDS011;58629;48.808;8.820;2022-12-20T09:45:34;5.63;;;3.38;;
70967;SDS011;58629;48.808;8.820;2022-12-20T09:48:01;5.63;;;3.30;;
70967;SDS011;58629;48.808;8.820;2022-12-20T09:50:44;6.97;;;3.90;;
70967;SDS011;58629;48.808;8.820;2022-12-20T09:55:57;5.63;;;3.08;;
70967;SDS011;58629;48.808;8.820;2022-12-20T10:00:53;4.60;;;2.80;;
70967;SDS011;58629;48.808;8.820;2022-12-20T10:03:21;5.87;;;3.10;;
70967;SDS011;58629;48.808;8.820;2022-12-20T10:05:53;6.78;;;3.97;;
70967;SDS011;58629;48.808;8.820;2022-12-20T10:16:38;6.20;;;3.40;;
70967;SDS011;58629;48.808;8.820;2022-12-20T10:22:04;4.93;;;2.83;;
70967;SDS011;58629;48.808;8.820;2022-12-20T10:24:35;5.85;;;3.25;;
70967;SDS011;58629;48.808;8.820;2022-12-20T10:27:18;6.75;;;3.58;;
70967;SDS011;58629;48.808;8.820;2022-12-20T10:29:45;6.03;;;2.90;;
70967;SDS011;58629;48.808;8.820;2022-12-20T10:32:13;4.40;;;3.00;;
70967;SDS011;58629;48.808;8.820;2022-12-20T10:34:58;5.77;;;3.30;;
70967;SDS011;58629;48.808;8.820;2022-12-20T10:38:05;5.50;;;3.05;;
70967;SDS011;58629;48.808;8.820;2022-12-20T10:40:37;7.25;;;4.15;;
70967;SDS011;58629;48.808;8.820;2022-12-20T10:43:05;7.57;;;4.07;;
70967;SDS011;58629;48.808;8.820;2022-12-20T10:45:38;5.15;;;3.05;;
70967;SDS011;58629;48.808;8.820;2022-12-20T10:50:56;4.82;;;3.13;;
70967;SDS011;58629;48.808;8.820;2022-12-20T10:53:25;5.90;;;3.20;;
70967;SDS011;58629;48.808;8.820;2022-12-20T10:55:51;4.72;;;2.92;;
70967;SDS011;58629;48.808;8.820;2022-12-20T11:01:02;4.80;;;2.60;;
70967;SDS011;58629;48.808;8.820;2022-12-20T11:03:29;5.60;;;2.95;;
70967;SDS011;58629;48.808;8.820;2022-12-20T11:05:56;5.27;;;2.80;;
70967;SDS011;58629;48.808;8.820;2022-12-20T11:08:23;4.95;;;3.13;;
70967;SDS011;58629;48.808;8.820;2022-12-20T11:11:00;5.18;;;3.00;;
70967;SDS011;58629;48.808;8.820;2022-12-20T11:13:42;4.25;;;2.70;;
70967;SDS011;58629;48.808;8.820;2022-12-20T11:16:54;5.15;;;2.90;;
70967;SDS011;58629;48.808;8.820;2022-12-20T11:25:05;5.00;;;2.53;;
70967;SDS011;58629;48.808;8.820;2022-12-20T11:27:31;5.18;;;2.75;;
70967;SDS011;58629;48.808;8.820;2022-12-20T11:30:19;5.38;;;2.92;;
70967;SDS011;58629;48.808;8.820;2022-12-20T11:32:58;4.35;;;2.90;;
70967;SDS011;58629;48.808;8.820;2022-12-20T11:36:05;5.67;;;3.00;;
70967;SDS011;58629;48.808;8.820;2022-12-20T11:38:43;5.30;;;3.00;;
70967;SDS011;58629;48.808;8.820;2022-12-20T11:41:58;24.50;;;11.05;;
70967;SDS011;58629;48.808;8.820;2022-12-20T11:44:20;16.85;;;8.07;;
70967;SDS011;58629;48.808;8.820;2022-12-20T11:50:03;7.23;;;4.13;;
70967;SDS011;58629;48.808;8.820;2022-12-20T11:52:50;6.90;;;3.80;;
70967;SDS011;58629;48.808;8.820;2022-12-20T11:55:21;5.25;;;3.25;;
70967;SDS011;58629;48.808;8.820;2022-12-20T11:58:04;10.07;;;5.18;;
70967;SDS011;58629;48.808;8.820;2022-12-20T12:00:37;6.85;;;3.72;;
70967;SDS011;58629;48.808;8.820;2022-12-20T12:03:38;6.03;;;2.57;;
70967;SDS011;58629;48.808;8.820;2022-12-20T12:06:19;4.72;;;2.60;;
70967;SDS011;58629;48.808;8.820;2022-12-20T12:11:37;5.43;;;2.95;;
70967;SDS011;58629;48.808;8.820;2022-12-20T12:14:12;4.28;;;2.60;;
70967;SDS011;58629;48.808;8.820;2022-12-20T12:16:51;4.33;;;2.70;;
70967;SDS011;58629;48.808;8.820;2022-12-20T12:19:21;3.90;;;2.10;;
70967;SDS011;58629;48.808;8.820;2022-12-20T12:21:57;4.65;;;2.50;;
70967;SDS011;58629;48.808;8.820;2022-12-20T12:27:24;3.90;;;2.60;;
70967;SDS011;58629;48.808;8.820;2022-12-20T12:29:52;5.13;;;2.63;;
70967;SDS011;58629;48.808;8.820;2022-12-20T12:32:24;7.00;;;3.10;;
70967;SDS011;58629;48.808;8.820;2022-12-20T12:43:45;4.70;;;2.47;;
70967;SDS011;58629;48.808;8.820;2022-12-20T12:46:15;4.20;;;2.20;;
70967;SDS011;58629;48.808;8.820;2022-12-20T12:48:45;4.75;;;2.53;;
70967;SDS011;58629;48.808;8.820;2022-12-20T12:51:25;5.78;;;2.60;;
70967;SDS011;58629;48.808;8.820;2022-12-20T12:56:52;5.33;;;3.10;;
70967;SDS011;58629;48.808;8.820;2022-12-20T13:04:51;5.03;;;2.90;;
70967;SDS011;58629;48.808;8.820;2022-12-20T13:09:50;8.07;;;3.50;;
70967;SDS011;58629;48.808;8.820;2022-12-20T13:15:00;8.75;;;4.55;;
70967;SDS011;58629;48.808;8.820;2022-12-20T13:19:54;8.82;;;4.53;;
70967;SDS011;58629;48.808;8.820;2022-12-20T13:22:20;9.45;;;4.18;;
70967;SDS011;58629;48.808;8.820;2022-12-20T13:25:01;10.03;;;4.20;;
70967;SDS011;58629;48.808;8.820;2022-12-20T13:37:57;6.50;;;3.72;;
70967;SDS011;58629;48.808;8.820;2022-12-20T13:43:25;4.75;;;2.92;;
70967;SDS011;58629;48.808;8.820;2022-12-20T13:46:10;5.47;;;2.80;;
70967;SDS011;58629;48.808;8.820;2022-12-20T13:51:14;4.95;;;2.83;;
70967;SDS011;58629;48.808;8.820;2022-12-20T13:53:41;6.40;;;3.60;;
70967;SDS011;58629;48.808;8.820;2022-12-20T13:58:50;5.20;;;3.10;;
70967;SDS011;58629;48.808;8.820;2022-12-20T14:01:20;4.32;;;2.55;;
70967;SDS011;58629;48.808;8.820;2022-12-20T14:03:47;5.80;;;3.60;;
70967;SDS011;58629;48.808;8.820;2022-12-20T14:06:13;5.40;;;3.00;;
70967;SDS011;58629;48.808;8.820;2022-12-20T14:08:40;5.32;;;3.30;;
70967;SDS011;58629;48.808;8.820;2022-12-20T14:11:09;5.00;;;3.30;;
70967;SDS011;58629;48.808;8.820;2022-12-20T14:13:36;5.00;;;3.30;;
70967;SDS011;58629;48.808;8.820;2022-12-20T14:16:17;6.07;;;3.70;;
70967;SDS011;58629;48.808;8.820;2022-12-20T14:18:58;5.72;;;3.13;;
70967;SDS011;58629;48.808;8.820;2022-12-20T14:21:26;5.72;;;3.03;;
70967;SDS011;58629;48.808;8.820;2022-12-20T14:23:53;5.78;;;3.17;;
70967;SDS011;58629;48.808;8.820;2022-12-20T14:26:22;7.47;;;3.58;;
70967;SDS011;58629;48.808;8.820;2022-12-20T14:28:51;6.03;;;3.13;;
70967;SDS011;58629;48.808;8.820;2022-12-20T14:31:33;13.40;;;5.85;;
70967;SDS011;58629;48.808;8.820;2022-12-20T14:36:31;13.87;;;4.83;;
70967;SDS011;58629;48.808;8.820;2022-12-20T14:38:57;7.15;;;3.40;;
70967;SDS011;58629;48.808;8.820;2022-12-20T14:41:28;6.95;;;3.25;;
70967;SDS011;58629;48.808;8.820;2022-12-20T14:43:56;5.68;;;2.85;;
70967;SDS011;58629;48.808;8.820;2022-12-20T14:46:24;5.70;;;3.00;;
70967;SDS011;58629;48.808;8.820;2022-12-20T14:49:04;5.30;;;2.80;;
70967;SDS011;58629;48.808;8.820;2022-12-20T14:51:37;3.88;;;2.60;;
70967;SDS011;58629;48.808;8.820;2022-12-20T14:54:03;4.93;;;2.60;;
70967;SDS011;58629;48.808;8.820;2022-12-20T14:56:28;5.77;;;3.23;;
70967;SDS011;58629;48.808;8.820;2022-12-20T14:59:28;4.47;;;2.60;;
70967;SDS011;58629;48.808;8.820;2022-12-20T15:01:53;3.97;;;2.42;;
70967;SDS011;58629;48.808;8.820;2022-12-20T15:06:49;4.40;;;2.80;;
70967;SDS011;58629;48.808;8.820;2022-12-20T15:09:16;5.03;;;3.00;;
70967;SDS011;58629;48.808;8.820;2022-12-20T15:11:42;4.10;;;2.57;;
70967;SDS011;58629;48.808;8.820;2022-12-20T15:17:11;4.25;;;2.58;;
70967;SDS011;58629;48.808;8.820;2022-12-20T15:19:38;5.35;;;2.70;;
70967;SDS011;58629;48.808;8.820;2022-12-20T15:22:03;4.70;;;2.50;;
70967;SDS011;58629;48.808;8.820;2022-12-20T15:24:29;4.55;;;2.55;;
70967;SDS011;58629;48.808;8.820;2022-12-20T15:26:56;7.07;;;3.45;;
70967;SDS011;58629;48.808;8.820;2022-12-20T15:29:22;6.30;;;3.00;;
70967;SDS011;58629;48.808;8.820;2022-12-20T15:31:50;5.70;;;3.47;;
70967;SDS011;58629;48.808;8.820;2022-12-20T15:34:18;5.88;;;3.22;;
70967;SDS011;58629;48.808;8.820;2022-12-20T15:36:46;11.15;;;5.30;;
70967;SDS011;58629;48.808;8.820;2022-12-20T15:39:11;7.93;;;4.30;;
70967;SDS011;58629;48.808;8.820;2022-12-20T15:41:37;10.67;;;5.27;;
70967;SDS011;58629;48.808;8.820;2022-12-20T15:44:06;8.35;;;4.25;;
70967;SDS011;58629;48.808;8.820;2022-12-20T15:46:42;7.03;;;4.03;;
70967;SDS011;58629;48.808;8.820;2022-12-20T15:49:15;7.63;;;3.70;;
70967;SDS011;58629;48.808;8.820;2022-12-20T15:51:43;5.68;;;3.30;;
70967;SDS011;58629;48.808;8.820;2022-12-20T15:56:59;10.68;;;6.00;;
70967;SDS011;58629;48.808;8.820;2022-12-20T15:59:27;9.33;;;5.10;;
70967;SDS011;58629;48.808;8.820;2022-12-20T16:01:52;8.68;;;4.63;;
70967;SDS011;58629;48.808;8.820;2022-12-20T16:04:18;7.90;;;4.40;;
70967;SDS011;58629;48.808;8.820;2022-12-20T16:06:46;6.38;;;4.05;;
70967;SDS011;58629;48.808;8.820;2022-12-20T16:09:13;7.05;;;3.70;;
70967;SDS011;58629;48.808;8.820;2022-12-20T16:11:38;7.33;;;4.03;;
70967;SDS011;58629;48.808;8.820;2022-12-20T16:14:04;6.23;;;3.60;;
70967;SDS011;58629;48.808;8.820;2022-12-20T16:16:33;6.82;;;3.75;;
70967;SDS011;58629;48.808;8.820;2022-12-20T16:19:00;5.82;;;3.60;;
70967;SDS011;58629;48.808;8.820;2022-12-20T16:21:29;5.70;;;3.63;;
70967;SDS011;58629;48.808;8.820;2022-12-20T16:23:56;6.03;;;3.50;;
70967;SDS011;58629;48.808;8.820;2022-12-20T16:26:23;6.63;;;3.70;;
70967;SDS011;58629;48.808;8.820;2022-12-20T16:28:50;8.17;;;4.57;;
70967;SDS011;58629;48.808;8.820;2022-12-20T16:34:02;7.05;;;4.50;;
70967;SDS011;58629;48.808;8.820;2022-12-20T16:36:30;10.25;;;5.30;;
70967;SDS011;58629;48.808;8.820;2022-12-20T16:38:56;9.50;;;5.10;;
70967;SDS011;58629;48.808;8.820;2022-12-20T16:41:22;10.20;;;5.95;;